Fabian Garcia SC Data

Date Time Air Temperature Relative Humidity Dewpoint Heat Index Wind Speed Wind Dir. Rain Solar Radiation Soil Temperature
2m 2m 3m 3m 10cm
US/Mountain F % F F MPH deg in MJ/m^2 F
max avg avg
2021-04-08 00:05:00 62.6 10.7 6.7 62.6 0.0 0.8 0.0 229.4 207.1 0.00 0.0000162 64.9
2021-04-08 00:10:00 62.3 9.5 3.8 62.3 1.5 1.5 0.4 91.4 121.2 0.00 0.0000000 64.9
2021-04-08 00:15:00 62.3 9.6 4.1 62.3 0.0 2.4 0.9 125.3 102.4 0.00 0.0000000 64.8
2021-04-08 00:20:00 61.2 11.6 7.3 61.2 2.1 2.6 0.6 202.9 209.1 0.00 0.0000000 64.7
2021-04-08 00:25:00 60.0 12.3 7.8 60.0 0.0 2.4 0.6 129.3 192.7 0.00 0.0000000 64.7
2021-04-08 00:30:00 59.7 11.3 5.5 59.7 0.0 0.0 0.0 155.3 0.0 0.00 0.0000000 64.6
2021-04-08 00:35:00 59.2 11.8 6.2 59.2 0.0 0.0 0.0 105.2 0.0 0.00 0.0000000 64.5
2021-04-08 00:40:00 59.4 10.9 4.5 59.4 1.9 2.8 1.6 105.3 96.9 0.00 0.0000000 64.4
2021-04-08 00:45:00 59.6 11.0 4.8 59.6 0.8 2.4 1.7 105.1 99.1 0.00 0.0000000 64.4
2021-04-08 00:50:00 59.1 11.7 5.9 59.1 0.0 0.0 0.0 204.0 0.0 0.00 0.0000000 64.3
2021-04-08 00:55:00 58.1 12.8 7.0 58.1 0.0 0.8 0.0 204.0 204.4 0.00 0.0000000 64.2
2021-04-08 01:00:00 57.5 13.3 7.4 57.5 0.0 0.0 0.0 238.6 0.0 0.00 0.0000020 64.1
2021-04-08 01:05:00 56.9 14.5 9.0 56.9 2.2 2.2 0.7 215.0 222.8 0.00 0.0000000 64.1
2021-04-08 01:10:00 56.3 13.9 7.5 56.3 0.0 1.9 0.7 177.0 214.0 0.00 0.0000020 64.0
2021-04-08 01:15:00 56.3 13.2 6.3 56.3 0.0 0.8 0.0 77.9 79.7 0.00 0.0000243 63.9
2021-04-08 01:20:00 56.1 13.4 6.5 56.1 0.0 0.0 0.0 111.9 0.0 0.00 0.0000323 63.8
2021-04-08 01:25:00 55.6 14.4 7.7 55.6 0.0 0.0 0.0 126.1 0.0 0.00 0.0000445 63.8
2021-04-08 01:30:00 55.2 15.1 8.4 55.2 0.0 0.0 0.0 215.3 0.0 0.00 0.0000445 63.7
2021-04-08 01:35:00 54.6 16.3 9.7 54.6 0.0 1.9 0.8 205.6 221.5 0.00 0.0000081 63.6
2021-04-08 01:40:00 54.5 14.4 6.8 54.5 0.0 0.0 0.0 205.6 0.0 0.00 0.0000020 63.5
2021-04-08 01:45:00 54.1 16.6 9.6 54.1 0.0 0.0 0.0 217.4 0.0 0.00 0.0000020 63.5
2021-04-08 01:50:00 53.9 15.9 8.6 53.9 0.0 0.8 0.0 220.8 209.3 0.00 0.0000020 63.4
2021-04-08 01:55:00 53.5 15.1 7.0 53.5 0.0 0.0 0.0 220.8 0.0 0.00 0.0000000 63.3
2021-04-08 02:00:00 53.4 18.3 11.2 53.4 0.0 0.0 0.0 194.6 0.0 0.00 0.0000000 63.2
2021-04-08 02:05:00 53.2 16.6 9.0 53.2 0.0 0.0 0.0 203.3 0.0 0.00 0.0000000 63.1
2021-04-08 02:10:00 52.7 17.0 9.1 52.7 0.0 0.0 0.0 203.2 0.0 0.00 0.0000000 63.1
2021-04-08 02:15:00 52.2 17.4 9.1 52.2 0.0 0.0 0.0 163.9 0.0 0.00 0.0000000 63.0
2021-04-08 02:20:00 52.4 16.8 8.5 52.4 0.0 0.0 0.0 83.4 0.0 0.00 0.0000000 62.9
2021-04-08 02:25:00 52.3 18.8 11.0 52.3 0.0 0.0 0.0 83.6 0.0 0.00 0.0000000 62.9
2021-04-08 02:30:00 52.2 17.6 9.4 52.2 0.0 0.0 0.0 213.9 0.0 0.00 0.0000000 62.8
2021-04-08 02:35:00 52.2 19.1 11.3 52.2 0.0 0.0 0.0 231.0 0.0 0.00 0.0000000 62.7
2021-04-08 02:40:00 52.5 18.5 10.8 52.5 1.0 1.0 0.1 240.4 241.9 0.00 0.0000000 62.6
2021-04-08 02:45:00 52.6 18.7 11.1 52.6 2.6 2.8 2.3 233.8 239.6 0.00 0.0000000 62.5
2021-04-08 02:50:00 52.1 20.0 12.2 52.1 0.0 2.4 0.5 255.1 247.4 0.00 0.0000000 62.5
2021-04-08 02:55:00 51.1 18.6 9.8 51.1 0.0 0.0 0.0 26.6 0.0 0.00 0.0000000 62.4
2021-04-08 03:00:00 51.1 18.1 9.1 51.1 0.0 0.0 0.0 280.2 0.0 0.00 0.0000000 62.3
2021-04-08 03:05:00 51.0 20.2 11.6 51.0 0.8 1.3 0.3 236.6 237.4 0.00 0.0000000 62.2
2021-04-08 03:10:00 50.8 19.4 10.5 50.8 0.0 0.0 0.0 288.7 0.0 0.00 0.0000000 62.2
2021-04-08 03:15:00 50.6 21.9 13.0 50.6 0.0 0.0 0.0 222.2 0.0 0.00 0.0000020 62.1
2021-04-08 03:20:00 50.8 19.4 10.4 50.8 0.0 0.0 0.0 251.9 0.0 0.00 0.0000040 62.0
2021-04-08 03:25:00 50.7 20.2 11.3 50.7 0.0 0.0 0.0 268.5 0.0 0.00 0.0000000 62.0
2021-04-08 03:30:00 50.6 16.8 7.1 50.6 0.0 0.0 0.0 307.1 0.0 0.00 0.0000000 61.9
2021-04-08 03:35:00 51.0 16.5 7.0 51.0 0.0 0.0 0.0 0.1 0.0 0.00 0.0000020 61.8
2021-04-08 03:40:00 52.5 15.1 6.3 52.5 0.0 0.8 0.0 37.6 5.6 0.00 0.0000000 61.8
2021-04-08 03:45:00 53.2 14.9 6.6 53.2 0.0 0.0 0.0 58.9 0.0 0.00 0.0000000 61.6
2021-04-08 03:50:00 53.0 15.8 7.6 53.0 1.7 2.8 0.5 38.1 57.2 0.00 0.0000000 61.6
2021-04-08 03:55:00 52.7 14.8 6.0 52.7 0.0 1.5 0.2 53.2 55.3 0.00 0.0000000 61.6
2021-04-08 04:00:00 53.4 15.2 7.2 53.4 3.1 4.6 3.4 34.7 43.6 0.00 0.0000000 61.5
2021-04-08 04:05:00 53.2 16.8 9.2 53.2 2.8 3.3 2.7 31.6 30.2 0.00 0.0000000 61.4
2021-04-08 04:10:00 53.0 16.1 8.1 53.0 0.0 3.0 1.2 34.6 30.1 0.00 0.0000000 61.3
2021-04-08 04:15:00 52.8 17.7 10.0 52.8 0.0 0.0 0.0 188.5 0.0 0.00 0.0000000 61.3
2021-04-08 04:20:00 52.1 18.9 10.8 52.1 0.0 2.2 0.6 213.9 215.5 0.00 0.0000000 61.2
2021-04-08 04:25:00 51.2 22.0 13.6 51.2 0.8 2.8 1.4 213.7 227.0 0.00 0.0000020 61.1
2021-04-08 04:30:00 51.0 20.6 12.0 51.0 0.0 1.0 0.0 206.0 210.2 0.00 0.0000000 61.1
2021-04-08 04:35:00 50.3 20.6 11.4 50.3 0.0 0.0 0.0 169.0 0.0 0.00 0.0000000 61.0
2021-04-08 04:40:00 50.0 22.6 13.2 50.0 0.0 0.0 0.0 188.3 0.0 0.00 0.0000000 60.9
2021-04-08 04:45:00 49.4 23.3 13.4 49.4 0.0 0.0 0.0 219.6 0.0 0.00 0.0000000 60.9
2021-04-08 04:50:00 49.0 23.0 12.8 49.0 0.0 0.0 0.0 219.6 0.0 0.00 0.0000000 60.8
2021-04-08 04:55:00 48.9 25.6 15.1 48.9 0.0 0.0 0.0 219.5 0.0 0.00 0.0000000 60.8
2021-04-08 05:00:00 48.8 24.8 14.3 48.8 0.0 0.0 0.0 109.8 0.0 0.00 0.0000000 60.7
2021-04-08 05:05:00 49.6 21.2 11.4 49.6 0.0 0.0 0.0 98.1 0.0 0.00 0.0000000 60.7
2021-04-08 05:10:00 50.3 19.9 10.6 50.3 0.0 0.0 0.0 92.3 0.0 0.00 0.0000000 60.6
2021-04-08 05:15:00 50.6 19.2 10.1 50.6 0.0 0.0 0.0 24.0 0.0 0.00 0.0000000 60.5
2021-04-08 05:20:00 51.0 17.5 8.3 51.0 0.0 0.0 0.0 27.7 0.0 0.00 0.0000000 60.5
2021-04-08 05:25:00 51.2 18.3 9.5 51.2 0.0 0.0 0.0 136.3 0.0 0.00 0.0000000 60.5
2021-04-08 05:30:00 50.9 20.4 11.6 50.9 0.0 0.0 0.0 206.6 0.0 0.00 0.0000020 60.4
2021-04-08 05:35:00 49.8 23.6 14.0 49.8 0.0 0.0 0.0 221.5 0.0 0.00 0.0000000 60.4
2021-04-08 05:40:00 49.2 26.8 16.5 49.2 0.0 0.0 0.0 252.2 0.0 0.00 0.0000000 60.3
2021-04-08 05:45:00 48.8 24.8 14.3 48.8 0.0 4.0 2.0 189.2 194.0 0.00 0.0000000 60.3
2021-04-08 05:50:00 48.2 26.5 15.3 48.2 0.0 1.3 0.3 185.8 201.3 0.00 0.0000000 60.2
2021-04-08 05:55:00 47.9 23.8 12.6 47.9 0.0 0.0 0.0 31.0 0.0 0.00 0.0000000 60.2
2021-04-08 06:00:00 47.7 23.7 12.3 47.7 0.0 0.0 0.0 80.9 0.0 0.00 0.0000040 60.1
2021-04-08 06:05:00 48.1 24.5 13.5 48.1 0.0 0.8 0.1 209.9 102.6 0.00 0.0000000 60.1
2021-04-08 06:10:00 48.5 22.6 12.0 48.5 0.0 0.0 0.0 30.3 0.0 0.00 0.0000344 60.0
2021-04-08 06:15:00 48.2 22.4 11.5 48.2 0.0 0.0 0.0 51.2 0.0 0.00 0.0000222 59.9
2021-04-08 06:20:00 48.3 21.9 11.1 48.3 0.0 0.8 0.0 27.6 45.4 0.00 0.0000101 59.9
2021-04-08 06:25:00 49.2 19.4 9.2 49.2 3.1 3.1 1.4 3.2 357.9 0.00 0.0000586 59.9
2021-04-08 06:30:00 50.5 18.7 9.4 50.5 1.3 3.8 2.0 15.1 16.2 0.00 0.0000586 59.8
2021-04-08 06:35:00 50.6 18.2 8.9 50.6 0.0 0.8 0.0 24.8 18.7 0.00 0.0001678 59.8
2021-04-08 06:40:00 50.3 23.5 14.4 50.3 0.0 0.0 0.0 219.1 0.0 0.00 0.0004448 59.7
2021-04-08 06:45:00 48.9 24.4 14.0 48.9 0.0 3.1 1.3 211.6 212.3 0.00 0.0009059 59.7
2021-04-08 06:50:00 48.5 26.5 15.6 48.5 0.0 0.8 0.1 255.0 217.9 0.00 0.0013588 59.6
2021-04-08 06:55:00 48.0 25.8 14.5 48.0 0.0 0.0 0.0 317.7 0.0 0.00 0.0019734 59.6
2021-04-08 07:00:00 47.6 25.0 13.5 47.6 0.0 0.0 0.0 281.8 0.0 0.00 0.0028650 59.6
2021-04-08 07:05:00 48.0 29.4 17.6 48.0 0.0 0.0 0.0 202.9 0.0 0.00 0.0039387 59.5
2021-04-08 07:10:00 47.8 28.1 16.4 47.8 0.0 0.0 0.0 227.7 0.0 0.00 0.0067714 59.5
2021-04-08 07:15:00 48.1 25.7 14.5 48.1 0.0 0.0 0.0 269.5 0.0 0.00 0.0150975 59.4
2021-04-08 07:20:00 48.6 25.8 15.1 48.6 0.0 0.0 0.0 257.3 0.0 0.00 0.0196569 59.4
2021-04-08 07:25:00 48.7 25.8 15.1 48.7 0.0 0.0 0.0 222.4 0.0 0.00 0.0146974 59.3
2021-04-08 07:30:00 49.4 26.3 16.2 49.4 0.0 0.0 0.0 244.8 0.0 0.00 0.0353960 59.3
2021-04-08 07:35:00 50.2 26.5 17.0 50.2 1.9 2.2 0.5 225.0 226.7 0.00 0.0409668 59.3
2021-04-08 07:40:00 50.8 22.4 13.6 50.8 1.7 3.7 1.8 227.3 232.2 0.00 0.0461007 59.2
2021-04-08 07:45:00 51.9 21.5 13.7 51.9 0.0 2.6 1.3 188.5 203.1 0.00 0.0512870 59.1
2021-04-08 07:50:00 53.3 21.5 14.8 53.3 0.0 0.0 0.0 142.0 0.0 0.00 0.0566089 59.1
2021-04-08 07:55:00 53.9 17.9 11.1 53.9 0.0 0.0 0.0 309.3 0.0 0.00 0.0619908 59.1
2021-04-08 08:00:00 55.4 17.8 12.4 55.4 0.0 0.0 0.0 7.2 0.0 0.00 0.0676341 59.1
2021-04-08 08:05:00 55.4 20.2 15.2 55.4 0.0 0.8 0.0 324.7 262.5 0.00 0.0730920 59.0
2021-04-08 08:10:00 55.8 19.5 14.7 55.8 0.0 0.0 0.0 265.6 0.0 0.00 0.0786321 59.0
2021-04-08 08:15:00 57.2 15.4 10.5 57.2 0.0 0.0 0.0 76.8 0.0 0.00 0.0843252 58.9
2021-04-08 08:20:00 57.9 15.1 10.6 57.9 0.0 0.0 0.0 147.7 0.0 0.00 0.0901927 58.9
2021-04-08 08:25:00 58.9 14.5 10.5 58.9 0.0 0.0 0.0 135.8 0.0 0.00 0.0959745 58.9
2021-04-08 08:30:00 60.5 14.4 11.7 60.5 0.0 0.0 0.0 218.9 0.0 0.00 0.1014046 58.9
2021-04-08 08:35:00 60.0 10.8 4.8 60.0 0.0 1.5 0.2 238.3 248.0 0.00 0.1068590 58.8
2021-04-08 08:40:00 59.2 13.5 9.1 59.2 0.0 3.0 1.2 284.4 266.5 0.00 0.1123708 58.8
2021-04-08 08:45:00 60.2 15.1 12.5 60.2 0.0 0.0 0.0 154.7 0.0 0.00 0.1180436 58.8
2021-04-08 08:50:00 60.6 14.3 11.6 60.6 0.0 1.5 0.3 255.4 269.8 0.00 0.1234922 58.8
2021-04-08 08:55:00 60.4 11.9 7.3 60.4 1.7 2.4 0.6 261.0 320.2 0.00 0.1288746 58.8
2021-04-08 09:00:00 60.7 12.3 8.2 60.7 0.0 3.0 1.2 184.4 233.2 0.00 0.1343855 58.8
2021-04-08 09:05:00 61.3 11.6 7.4 61.3 0.0 0.8 0.0 193.7 158.0 0.00 0.1403059 58.8
2021-04-08 09:10:00 61.5 12.1 8.6 61.5 1.9 3.1 0.9 268.3 248.7 0.00 0.1454759 58.8
2021-04-08 09:15:00 62.2 12.1 9.0 62.2 0.0 1.7 0.2 219.4 257.3 0.00 0.1507685 58.8
2021-04-08 09:20:00 63.3 10.8 7.4 63.3 0.0 0.8 0.0 244.2 291.6 0.00 0.1561094 58.8
2021-04-08 09:25:00 63.6 9.7 5.3 63.6 2.6 2.8 1.5 191.3 211.6 0.00 0.1614003 58.8
2021-04-08 09:30:00 63.9 10.6 7.4 63.9 1.7 2.4 0.8 284.2 244.2 0.00 0.1665056 58.8
2021-04-08 09:35:00 64.0 8.5 2.9 64.0 3.3 3.7 2.4 279.7 255.9 0.00 0.1715196 58.8
2021-04-08 09:40:00 64.2 11.6 9.7 64.2 0.0 3.0 1.4 219.0 255.1 0.00 0.1768168 58.8
2021-04-08 09:45:00 64.9 8.6 3.7 64.9 0.8 3.5 1.4 330.4 259.1 0.00 0.1818322 58.8
2021-04-08 09:50:00 65.7 11.5 10.8 65.7 1.0 2.8 0.4 244.0 210.4 0.00 0.1864791 58.9
2021-04-08 09:55:00 66.0 9.4 6.3 66.0 0.0 4.0 2.2 179.1 263.6 0.00 0.1911313 58.9
2021-04-08 10:00:00 66.9 10.0 8.5 66.9 1.5 3.3 1.8 206.2 232.7 0.00 0.1956430 58.9
2021-04-08 10:05:00 68.0 10.8 11.2 68.0 1.0 2.1 1.1 47.7 257.7 0.00 0.2001031 59.0
2021-04-08 10:10:00 69.2 7.8 4.7 69.2 2.8 3.8 2.0 50.7 24.2 0.00 0.2043260 59.0
2021-04-08 10:15:00 69.2 7.7 4.5 69.2 3.8 4.6 3.4 2.6 35.0 0.00 0.2100218 59.0
2021-04-08 10:20:00 70.2 7.0 3.2 70.2 3.1 4.6 2.9 8.6 35.4 0.00 0.2154260 59.1
2021-04-08 10:25:00 71.1 7.0 3.9 71.1 1.7 3.0 1.7 104.7 47.9 0.00 0.2203175 59.1
2021-04-08 10:30:00 71.7 6.2 1.8 71.7 3.1 3.8 2.3 71.2 14.2 0.00 0.2235799 59.2
2021-04-08 10:35:00 71.7 6.1 1.3 71.7 3.5 4.7 2.8 24.2 49.8 0.00 0.2232550 59.3
2021-04-08 10:40:00 72.2 7.9 7.2 72.2 1.7 5.3 2.9 34.8 26.5 0.00 0.2239101 59.4
2021-04-08 10:45:00 73.4 6.3 3.3 73.4 6.0 6.7 2.3 7.2 15.2 0.00 0.2312666 59.5
2021-04-08 10:50:00 73.4 8.6 10.0 73.4 4.7 5.5 3.4 14.0 0.5 0.00 0.2365477 59.5
2021-04-08 10:55:00 74.1 7.0 6.0 74.1 3.8 5.6 4.1 336.4 35.7 0.00 0.2400626 59.6
2021-04-08 11:00:00 74.7 6.6 5.1 74.7 3.8 7.6 4.9 23.4 11.2 0.00 0.2436402 59.7
2021-04-08 11:05:00 74.2 6.3 3.7 74.2 4.9 7.1 4.7 74.2 49.1 0.00 0.2471849 59.8
2021-04-08 11:10:00 74.5 6.9 6.0 74.5 4.0 6.9 4.9 47.1 51.1 0.00 0.2504342 59.9
2021-04-08 11:15:00 74.5 6.6 5.2 74.5 2.4 5.8 3.7 298.4 6.8 0.00 0.2534294 60.0
2021-04-08 11:20:00 75.3 7.5 8.5 75.3 4.4 6.7 4.1 26.6 345.2 0.00 0.2564689 60.1
2021-04-08 11:25:00 75.3 6.1 3.8 75.3 2.6 4.6 2.4 95.0 40.3 0.00 0.2592847 60.2
2021-04-08 11:30:00 76.8 5.9 4.2 76.8 3.8 4.0 2.3 76.1 91.5 0.00 0.2620159 60.3
2021-04-08 11:35:00 77.8 8.9 14.1 77.8 2.6 3.8 2.4 143.0 12.9 0.00 0.2645706 60.4
2021-04-08 11:40:00 78.6 9.1 15.3 78.6 5.1 6.9 2.1 245.8 198.6 0.00 0.2670612 60.5
2021-04-08 11:45:00 76.7 7.6 9.8 76.7 2.6 7.4 3.8 206.4 246.9 0.00 0.2693979 60.7
2021-04-08 11:50:00 76.7 7.8 10.2 76.7 2.2 6.0 2.7 163.4 208.5 0.00 0.2718735 60.8
2021-04-08 11:55:00 77.5 7.6 10.3 77.5 3.7 7.1 3.1 138.6 118.9 0.00 0.2741252 60.9
2021-04-08 12:00:00 78.0 7.2 9.4 78.0 3.3 4.0 2.7 187.3 155.3 0.00 0.2770437 61.1
2021-04-08 12:05:00 78.5 8.2 12.8 78.5 3.3 5.1 3.3 143.4 140.8 0.00 0.2808740 61.2
2021-04-08 12:10:00 78.7 7.1 9.6 78.7 2.2 5.3 3.8 119.8 119.1 0.00 0.2796606 61.4
2021-04-08 12:15:00 78.5 7.2 10.1 78.5 3.7 4.9 2.6 295.8 183.0 0.00 0.2583017 61.5
2021-04-08 12:20:00 79.6 7.0 10.0 79.6 6.2 7.4 2.9 1.4 336.1 0.00 0.2916697 61.7
2021-04-08 12:25:00 79.0 7.6 11.4 79.0 2.8 6.0 4.0 88.8 39.8 0.00 0.2895257 61.9
2021-04-08 12:30:00 79.4 8.2 13.6 79.4 4.0 6.5 4.1 112.6 89.0 0.00 0.2097573 62.1
2021-04-08 12:35:00 79.6 8.3 14.1 79.6 2.2 6.0 3.9 115.3 110.8 0.00 0.2542215 62.2
2021-04-08 12:40:00 79.9 8.5 14.8 79.9 2.4 3.1 1.8 142.0 104.6 0.00 0.2881114 62.4
2021-04-08 12:45:00 81.3 9.0 17.2 81.3 8.5 9.6 4.6 142.6 136.4 0.00 0.2890886 62.6
2021-04-08 12:50:00 81.3 10.8 21.3 81.3 8.1 16.7 9.9 191.9 204.7 0.00 0.2882729 62.7
2021-04-08 12:55:00 81.8 7.8 14.1 81.8 6.0 23.3 12.1 296.4 245.6 0.00 0.2896576 62.9
2021-04-08 13:00:00 82.0 8.3 15.7 82.0 9.7 13.0 9.0 276.5 266.9 0.00 0.2588969 63.1
2021-04-08 13:05:00 81.9 10.0 20.0 81.9 2.4 10.6 6.6 278.5 271.0 0.00 0.2564427 63.2
2021-04-08 13:10:00 81.4 9.2 17.6 81.4 8.8 14.2 8.8 247.0 241.6 0.00 0.2475354 63.3
2021-04-08 13:15:00 81.0 10.8 21.0 81.0 7.1 9.2 7.7 263.2 249.9 0.00 0.2892805 63.5
2021-04-08 13:20:00 82.7 10.8 22.4 82.7 9.0 14.2 10.0 235.1 245.1 0.00 0.2957840 63.6
2021-04-08 13:25:00 81.9 10.0 20.0 81.9 8.1 16.4 9.9 259.6 243.5 0.00 0.2774518 63.7
2021-04-08 13:30:00 81.8 9.7 19.1 81.8 5.6 20.8 12.9 259.8 252.7 0.00 0.2387377 63.8
2021-04-08 13:35:00 82.4 10.1 20.6 82.4 12.6 14.9 10.3 283.2 263.9 0.00 0.2947483 63.9
2021-04-08 13:40:00 82.5 8.9 17.7 82.5 17.2 17.2 13.3 263.9 253.8 0.00 0.2877136 64.0
2021-04-08 13:45:00 82.5 10.1 20.7 82.5 8.7 15.8 11.9 272.9 250.3 0.00 0.3063740 64.1
2021-04-08 13:50:00 81.9 9.2 18.0 81.9 10.6 14.6 10.8 282.9 253.5 0.00 0.2584767 64.1
2021-04-08 13:55:00 81.4 9.0 17.2 81.4 10.6 13.5 9.3 256.4 232.9 0.00 0.2436798 64.2
2021-04-08 14:00:00 81.6 10.2 20.2 81.6 9.6 17.2 12.2 216.7 238.9 0.00 0.2556124 64.3
2021-04-08 14:05:00 81.6 9.4 18.3 81.6 14.2 17.6 11.2 231.6 246.1 0.00 0.2711239 64.4
2021-04-08 14:10:00 81.7 9.7 19.1 81.7 11.3 14.7 8.6 230.6 230.5 0.00 0.2039060 64.5
2021-04-08 14:15:00 82.1 9.7 19.3 82.1 6.5 11.5 6.9 216.7 228.5 0.00 0.2279184 64.7
2021-04-08 14:20:00 82.9 9.4 19.2 82.9 12.1 16.4 11.0 218.8 258.0 0.00 0.2052291 64.8
2021-04-08 14:25:00 82.7 10.0 20.6 82.7 8.0 17.2 11.5 232.2 242.3 0.00 0.2298687 64.9
2021-04-08 14:30:00 83.2 9.3 19.2 83.2 7.2 15.6 10.3 268.3 247.1 0.00 0.2487171 65.0
2021-04-08 14:35:00 83.3 9.3 19.5 83.3 11.3 13.9 9.6 241.4 232.9 0.00 0.2655182 65.1
2021-04-08 14:40:00 83.9 8.9 18.9 83.9 12.6 15.8 11.8 254.9 242.2 0.00 0.2772587 65.2
2021-04-08 14:45:00 83.7 9.6 20.4 83.7 11.3 18.9 15.1 216.4 243.4 0.00 0.2758923 65.3
2021-04-08 14:50:00 84.1 8.6 18.0 84.1 14.9 18.0 12.5 243.9 238.2 0.00 0.2650880 65.4
2021-04-08 14:55:00 83.7 9.1 19.2 83.7 15.1 17.2 13.4 261.4 257.4 0.00 0.2497624 65.5
2021-04-08 15:00:00 83.4 9.4 19.7 83.4 18.1 18.1 13.8 214.6 249.8 0.00 0.2176265 65.7
2021-04-08 15:05:00 82.8 8.9 18.1 82.8 12.1 16.4 12.0 252.7 259.2 0.00 0.1273263 65.8
2021-04-08 15:10:00 83.6 9.1 19.2 83.6 9.9 18.1 12.1 241.3 251.4 0.00 0.2124064 65.9
2021-04-08 15:15:00 83.6 9.7 20.6 83.6 9.6 18.0 11.6 247.4 259.6 0.00 0.2327460 66.0
2021-04-08 15:20:00 84.5 8.5 18.1 84.5 13.9 23.0 14.0 270.9 256.0 0.00 0.2552420 66.1
2021-04-08 15:25:00 83.3 8.9 18.4 83.3 14.2 22.8 14.7 255.5 244.2 0.00 0.2244138 66.2
2021-04-08 15:30:00 84.0 8.9 19.0 84.0 13.5 22.3 16.2 232.7 249.8 0.00 0.2582397 66.3
2021-04-08 15:35:00 83.6 8.4 17.2 83.6 11.7 18.3 11.8 303.8 232.8 0.00 0.1283956 66.4
2021-04-08 15:40:00 83.2 8.5 17.2 83.2 15.3 17.6 13.1 246.7 258.1 0.00 0.1496559 66.5
2021-04-08 15:45:00 83.1 9.4 19.5 83.1 14.2 23.0 16.1 215.1 254.9 0.00 0.1896902 66.6
2021-04-08 15:50:00 83.0 8.7 17.7 83.0 16.4 21.4 16.2 229.7 244.8 0.00 0.1663743 66.7
2021-04-08 15:55:00 83.4 8.6 17.6 83.4 13.0 23.0 13.2 255.9 258.3 0.00 0.1656411 66.8
2021-04-08 16:00:00 83.9 8.4 17.3 83.9 12.1 16.5 11.6 275.8 250.9 0.00 0.1924984 66.8
2021-04-08 16:05:00 84.3 8.1 16.8 84.3 14.7 23.3 16.1 250.3 258.1 0.00 0.2084749 66.9
2021-04-08 16:10:00 84.5 8.3 17.5 84.5 15.1 20.6 11.8 251.8 258.7 0.00 0.1943977 67.0
2021-04-08 16:15:00 84.0 8.2 16.8 84.0 13.9 22.4 14.8 266.1 263.3 0.00 0.1966368 67.1
2021-04-08 16:20:00 83.7 8.5 17.5 83.7 14.6 19.8 15.7 232.7 243.7 0.00 0.1688710 67.1
2021-04-08 16:25:00 83.8 8.0 16.2 83.8 12.8 20.6 14.5 245.6 257.5 0.00 0.1693967 67.2
2021-04-08 16:30:00 84.0 7.9 16.1 84.0 16.5 22.1 13.5 244.9 253.9 0.00 0.1221748 67.2
2021-04-08 16:35:00 84.3 8.0 16.5 84.3 11.0 19.6 14.0 315.0 257.1 0.00 0.1811469 67.3
2021-04-08 16:40:00 84.7 7.2 14.5 84.7 15.5 17.8 11.9 260.0 261.6 0.00 0.1608247 67.4
2021-04-08 16:45:00 83.4 7.9 15.7 83.4 11.2 16.7 11.9 255.1 269.0 0.00 0.1032519 67.4
2021-04-08 16:50:00 84.0 8.1 16.6 84.0 7.4 15.6 10.2 278.0 266.2 0.00 0.1377610 67.5
2021-04-08 16:55:00 83.7 7.6 14.9 83.7 18.5 20.8 13.8 268.8 258.4 0.00 0.1307186 67.5
2021-04-08 17:00:00 83.7 8.6 17.7 83.7 16.7 19.6 14.5 271.4 250.0 0.00 0.1668641 67.6
2021-04-08 17:05:00 84.1 7.6 15.2 84.1 17.4 18.3 13.9 245.1 257.6 0.00 0.1588967 67.6
2021-04-08 17:10:00 83.8 8.5 17.7 83.8 15.1 23.0 16.1 229.9 256.1 0.00 0.1299791 67.6
2021-04-08 17:15:00 83.1 8.2 16.2 83.1 10.3 22.8 16.5 217.3 250.0 0.00 0.1134572 67.7
2021-04-08 17:20:00 83.4 8.2 16.4 83.4 12.6 16.9 12.0 249.1 264.8 0.00 0.1186111 67.7
2021-04-08 17:25:00 84.1 8.2 17.0 84.1 13.3 18.0 12.8 245.8 252.2 0.00 0.1376609 67.7
2021-04-08 17:30:00 83.9 8.5 17.6 83.9 13.9 20.5 12.2 280.4 258.5 0.00 0.1268612 67.8
2021-04-08 17:35:00 83.7 8.6 17.8 83.7 18.0 20.1 13.5 219.6 250.2 0.00 0.1212842 67.8
2021-04-08 17:40:00 83.3 8.3 16.6 83.3 15.6 19.6 14.4 260.7 254.2 0.00 0.1125404 67.8
2021-04-08 17:45:00 83.3 8.5 17.3 83.3 13.0 19.9 14.2 278.4 263.4 0.00 0.1091906 67.9
2021-04-08 17:50:00 83.0 8.7 17.6 83.0 14.4 21.0 14.3 226.5 253.6 0.00 0.1043226 67.9
2021-04-08 17:55:00 83.0 8.4 16.7 83.0 15.3 20.8 15.3 243.5 255.6 0.00 0.0984437 67.9
2021-04-08 18:00:00 82.7 8.4 16.4 82.7 14.2 19.6 15.7 248.6 257.3 0.00 0.0921585 67.9
2021-04-08 18:05:00 83.0 7.8 14.9 83.0 14.4 19.4 13.6 263.6 251.4 0.00 0.0909462 67.9
2021-04-08 18:10:00 82.9 7.9 15.3 82.9 11.2 18.1 12.1 253.6 248.4 0.00 0.0855905 67.9
2021-04-08 18:15:00 82.9 7.6 14.4 82.9 14.0 19.6 13.8 255.5 260.6 0.00 0.0797353 67.9
2021-04-08 18:20:00 82.5 7.3 13.1 82.5 21.7 21.7 15.1 252.8 263.3 0.00 0.0728252 68.0
2021-04-08 18:25:00 82.5 7.2 12.8 82.5 13.1 19.9 13.9 254.5 262.3 0.00 0.0657790 68.0
2021-04-08 18:30:00 82.7 8.1 15.6 82.7 6.7 17.6 12.1 261.1 263.0 0.00 0.0580805 68.0
2021-04-08 18:35:00 82.2 7.2 12.7 82.2 12.1 17.6 11.8 252.6 251.9 0.00 0.0548804 68.0
2021-04-08 18:40:00 82.0 7.8 14.3 82.0 9.9 17.2 11.7 265.1 249.9 0.00 0.0503984 68.0
2021-04-08 18:45:00 82.1 7.3 13.0 82.1 13.3 17.4 14.0 266.4 256.4 0.00 0.0433331 68.0
2021-04-08 18:50:00 81.9 7.4 13.1 81.9 11.2 18.1 12.2 247.2 253.4 0.00 0.0386151 68.0
2021-04-08 18:55:00 81.4 7.7 13.4 81.4 12.4 15.3 9.2 238.4 257.4 0.00 0.0319020 68.0
2021-04-08 19:00:00 81.3 7.7 13.5 81.3 10.5 12.6 9.1 243.6 252.8 0.00 0.0261451 68.0
2021-04-08 19:05:00 81.2 7.5 13.0 81.2 9.0 19.6 9.2 263.8 256.1 0.00 0.0208411 68.0
2021-04-08 19:10:00 81.1 7.5 12.8 81.1 11.3 19.2 13.0 248.1 260.2 0.00 0.0153687 68.0
2021-04-08 19:15:00 80.9 7.6 12.8 80.9 11.0 14.6 10.1 273.6 260.0 0.00 0.0107133 67.9
2021-04-08 19:20:00 80.4 7.7 12.8 80.4 7.6 14.7 7.5 265.7 265.2 0.00 0.0064195 67.9
2021-04-08 19:25:00 80.0 8.0 13.4 80.0 6.9 10.3 6.8 248.9 259.2 0.00 0.0038941 67.9
2021-04-08 19:30:00 80.0 7.5 11.9 80.0 12.1 13.9 9.1 272.3 262.0 0.00 0.0027132 67.9
2021-04-08 19:35:00 79.6 7.8 12.6 79.6 15.1 15.1 9.8 248.2 260.2 0.00 0.0020187 67.9
2021-04-08 19:40:00 79.5 8.0 12.9 79.5 10.5 16.9 10.4 275.3 264.3 0.00 0.0013990 67.8
2021-04-08 19:45:00 79.4 8.3 13.8 79.4 4.7 12.1 8.3 266.3 267.3 0.00 0.0005148 67.8
2021-04-08 19:50:00 79.5 8.0 13.0 79.5 7.1 11.5 8.1 289.7 268.9 0.00 0.0001494 67.8
2021-04-08 19:55:00 78.9 8.4 13.6 78.9 6.3 10.6 7.1 269.0 268.2 0.00 0.0000343 67.7
2021-04-08 20:00:00 78.6 8.5 13.8 78.6 6.3 9.0 6.4 263.7 268.3 0.00 0.0000000 67.7
2021-04-08 20:05:00 78.4 8.7 14.2 78.4 4.9 9.9 5.6 296.0 283.4 0.00 0.0000000 67.7
2021-04-08 20:10:00 78.0 8.8 14.0 78.0 6.9 10.1 6.2 253.2 270.4 0.00 0.0000000 67.6
2021-04-08 20:15:00 77.7 8.9 14.1 77.7 4.2 6.7 4.6 284.5 279.8 0.00 0.0000000 67.6
2021-04-08 20:20:00 77.2 9.3 14.6 77.2 0.0 8.5 2.9 220.5 258.1 0.00 0.0000020 67.6
2021-04-08 20:25:00 76.9 9.0 13.7 76.9 3.3 9.2 2.9 297.0 276.8 0.00 0.0000081 67.5
2021-04-08 20:30:00 76.7 9.3 14.3 76.7 4.2 7.4 4.1 255.2 276.7 0.00 0.0000242 67.5
2021-04-08 20:35:00 76.3 9.3 14.1 76.3 3.1 7.8 3.3 303.5 275.1 0.00 0.0000141 67.4
2021-04-08 20:40:00 76.2 9.6 14.7 76.2 3.7 7.1 2.9 281.8 283.4 0.00 0.0000283 67.4
2021-04-08 20:45:00 76.0 9.9 15.3 76.0 4.0 9.2 4.7 288.7 271.1 0.00 0.0000242 67.4
2021-04-08 20:50:00 75.7 10.0 15.2 75.7 7.1 7.1 4.4 257.7 271.7 0.00 0.0000343 67.3
2021-04-08 20:55:00 75.6 10.2 15.7 75.6 3.8 7.8 5.2 274.9 271.9 0.00 0.0000121 67.3
2021-04-08 21:00:00 75.4 10.3 15.7 75.4 4.2 8.5 5.3 235.3 264.1 0.00 0.0000141 67.2
2021-04-08 21:05:00 75.3 10.4 15.8 75.3 3.3 6.3 4.1 276.8 277.6 0.00 0.0000061 67.2
2021-04-08 21:10:00 75.4 10.2 15.5 75.4 3.8 8.7 3.3 260.3 271.4 0.00 0.0000101 67.1
2021-04-08 21:15:00 74.9 10.5 15.9 74.9 8.1 8.1 3.2 312.4 277.8 0.00 0.0000040 67.1
2021-04-08 21:20:00 74.6 10.7 16.0 74.6 2.4 5.3 2.5 218.2 279.7 0.00 0.0000000 67.0
2021-04-08 21:25:00 74.5 10.9 16.3 74.5 1.2 6.5 3.6 285.0 274.1 0.00 0.0000000 67.0
2021-04-08 21:30:00 74.5 11.0 16.5 74.5 0.0 7.4 3.3 283.5 274.4 0.00 0.0000000 66.9
2021-04-08 21:35:00 74.3 10.9 16.2 74.3 2.6 8.1 3.9 294.2 279.2 0.00 0.0000000 66.9
2021-04-08 21:40:00 74.0 11.0 16.2 74.0 4.0 5.6 3.8 249.9 275.7 0.00 0.0000000 66.8
2021-04-08 21:45:00 73.5 12.2 18.2 73.5 0.8 5.6 3.2 138.6 272.0 0.00 0.0000000 66.8
2021-04-08 21:50:00 72.8 11.8 16.8 72.8 2.8 3.5 1.4 261.5 270.5 0.00 0.0000000 66.7
2021-04-08 21:55:00 72.6 12.2 17.3 72.6 0.0 5.1 2.6 34.3 272.5 0.00 0.0000000 66.7
2021-04-08 22:00:00 72.1 12.3 17.2 72.1 0.8 2.4 0.4 248.8 277.0 0.00 0.0000000 66.6
2021-04-08 22:05:00 71.7 12.7 17.7 71.7 2.1 3.7 0.9 16.7 259.2 0.00 0.0000000 66.5
2021-04-08 22:10:00 71.4 12.0 16.2 71.4 2.8 4.4 2.5 213.6 283.8 0.00 0.0000000 66.5
2021-04-08 22:15:00 71.2 12.3 16.5 71.2 3.1 4.0 1.4 280.9 290.4 0.00 0.0000000 66.5
2021-04-08 22:20:00 70.4 12.5 16.3 70.4 1.2 3.5 1.1 273.7 327.8 0.00 0.0000000 66.4
2021-04-08 22:25:00 70.2 12.8 16.7 70.2 0.0 1.9 0.2 260.3 288.6 0.00 0.0000000 66.3
2021-04-08 22:30:00 69.8 12.5 15.9 69.8 4.2 4.6 1.1 277.3 281.2 0.00 0.0000000 66.3
2021-04-08 22:35:00 69.8 13.0 16.6 69.8 2.6 3.3 1.2 245.1 273.1 0.00 0.0000000 66.2
2021-04-08 22:40:00 69.4 13.1 16.5 69.4 0.0 1.7 0.4 230.5 277.4 0.00 0.0000000 66.1
2021-04-08 22:45:00 68.8 13.5 16.7 68.8 0.0 1.5 0.2 264.7 258.6 0.00 0.0000000 66.1
2021-04-08 22:50:00 67.9 13.6 16.2 67.9 0.0 0.0 0.0 44.2 0.0 0.00 0.0000040 66.0
2021-04-08 22:55:00 67.1 14.0 16.2 67.1 0.0 0.0 0.0 331.7 0.0 0.00 0.0000061 66.0
2021-04-08 23:00:00 66.8 14.6 16.9 66.8 0.0 0.8 0.1 36.1 328.8 0.00 0.0000061 65.9
2021-04-08 23:05:00 67.2 13.6 15.7 67.2 2.6 2.6 0.6 314.1 269.3 0.00 0.0000202 65.9
2021-04-08 23:10:00 68.1 13.3 15.9 68.1 0.0 3.5 1.6 295.4 278.5 0.00 0.0000222 65.8
2021-04-08 23:15:00 67.9 14.2 17.2 67.9 0.0 3.3 0.5 190.8 266.3 0.00 0.0000263 65.7
2021-04-08 23:20:00 67.9 13.2 15.5 67.9 0.0 4.4 1.5 7.2 295.6 0.00 0.0000141 65.7
2021-04-08 23:25:00 67.9 13.6 16.2 67.9 0.0 1.3 0.2 268.4 297.6 0.00 0.0000182 65.6
2021-04-08 23:30:00 67.5 13.9 16.5 67.5 1.0 2.6 0.5 255.6 261.6 0.00 0.0000141 65.5
2021-04-08 23:35:00 67.7 13.9 16.6 67.7 3.1 4.6 1.0 207.6 263.7 0.00 0.0000081 65.5
2021-04-08 23:40:00 68.2 13.6 16.4 68.2 0.0 4.6 1.9 261.3 284.6 0.00 0.0000141 65.4
2021-04-08 23:45:00 68.2 14.1 17.4 68.2 0.0 3.8 1.0 246.4 260.5 0.00 0.0000020 65.3
2021-04-08 23:50:00 67.8 14.2 17.2 67.8 0.0 3.1 0.7 274.1 279.6 0.00 0.0000061 65.3
2021-04-08 23:55:00 67.0 15.2 18.2 67.0 0.0 0.8 0.0 144.4 316.0 0.00 0.0000020 65.2
2021-04-09 00:00:00 66.8 14.9 17.4 66.8 0.0 0.0 0.0 124.4 0.0 0.00 0.0000081 65.2

Data is courtesy of the NM Climate Center. DO NOT USE IN LEGAL PROCEEDINGS.